createdAt,value
2018-05-11T00:00:20.129Z,97396.17
2018-05-11T00:02:49.856Z,97404.55
2018-05-11T00:05:20.262Z,97404.53
2018-05-11T00:07:51.061Z,97408.86
2018-05-11T00:10:21.152Z,97406.16
2018-05-11T00:12:50.999Z,97413.45
2018-05-11T00:15:21.683Z,97410.22
2018-05-11T00:17:51.840Z,97416.59
2018-05-11T00:20:21.528Z,97413.11
2018-05-11T00:22:51.654Z,97407.64
2018-05-11T00:25:21.502Z,97412.47
2018-05-11T00:27:51.509Z,97411.80
2018-05-11T00:30:21.918Z,97400.55
2018-05-11T00:32:52.035Z,97405.94
2018-05-11T00:35:21.591Z,97406.86
2018-05-11T00:37:52.829Z,97405.73
2018-05-11T00:40:22.749Z,97406.43
2018-05-11T00:42:53.736Z,97398.44
2018-05-11T00:45:23.774Z,97403.45
2018-05-11T00:47:53.316Z,97398.20
2018-05-11T00:50:24.863Z,97404.32
2018-05-11T00:52:54.667Z,97396.61
2018-05-11T00:55:42.815Z,97396.59
2018-05-11T00:58:12.550Z,97397.13
2018-05-11T01:00:43.143Z,97390.26
2018-05-11T01:03:14.088Z,97395.14
2018-05-11T01:05:43.784Z,97396.48
2018-05-11T01:08:15.037Z,97396.33
2018-05-11T01:10:44.716Z,97398.75
2018-05-11T01:13:14.268Z,97407.76
2018-05-11T01:15:43.958Z,97396.39
2018-05-11T01:18:13.704Z,97397.72
2018-05-11T01:20:44.038Z,97395.88
2018-05-11T01:23:15.221Z,97393.77
2018-05-11T01:25:44.817Z,97403.00
2018-05-11T01:28:14.518Z,97400.70
2018-05-11T01:30:44.898Z,97404.76
2018-05-11T01:33:16.596Z,97406.20
2018-05-11T01:35:47.423Z,97405.79
2018-05-11T01:38:20.440Z,97410.80
2018-05-11T01:40:50.709Z,97403.34
2018-05-11T01:43:21.614Z,97402.84
2018-05-11T01:45:52.367Z,97405.55
2018-05-11T01:48:22.089Z,97409.16
2018-05-11T01:50:52.288Z,97406.60
2018-05-11T01:53:22.114Z,97410.22
2018-05-11T01:55:52.946Z,97402.12
2018-05-11T01:58:23.290Z,97406.48
2018-05-11T02:00:53.284Z,97403.08
2018-05-11T02:03:24.549Z,97404.11
2018-05-11T02:05:54.391Z,97409.72
2018-05-11T02:08:24.039Z,97406.05
2018-05-11T02:10:54.350Z,97410.14
2018-05-11T02:13:24.723Z,97414.05
2018-05-11T02:15:56.295Z,97405.27
2018-05-11T02:18:26.799Z,97406.83
2018-05-11T02:20:56.378Z,97403.11
2018-05-11T02:23:26.747Z,97403.38
2018-05-11T02:25:56.528Z,97404.84
2018-05-11T02:28:26.228Z,97403.67
2018-05-11T02:30:56.570Z,97398.33
2018-05-11T02:33:26.654Z,97400.21
2018-05-11T02:35:56.529Z,97398.50
2018-05-11T02:38:26.660Z,97401.30
2018-05-11T02:40:56.213Z,97398.03
2018-05-11T02:43:26.049Z,97402.25
2018-05-11T02:45:57.292Z,97406.32
2018-05-11T02:48:27.473Z,97401.18
2018-05-11T02:50:57.295Z,97404.94
2018-05-11T02:53:27.058Z,97413.72
2018-05-11T02:55:56.776Z,97406.44
2018-05-11T02:58:26.494Z,97408.30
2018-05-11T03:00:56.405Z,97411.84
2018-05-11T03:03:26.001Z,97415.05
2018-05-11T03:05:57.578Z,97419.83
2018-05-11T03:08:28.447Z,97415.05
2018-05-11T03:10:58.412Z,97407.84
2018-05-11T03:13:29.554Z,97418.73
2018-05-11T03:15:59.483Z,97419.88
2018-05-11T03:18:29.214Z,97415.72
2018-05-11T03:20:58.874Z,97421.45
2018-05-11T03:23:28.414Z,97418.65
2018-05-11T03:25:57.951Z,97422.72
2018-05-11T03:28:28.437Z,97421.84
2018-05-11T03:30:58.139Z,97427.80
2018-05-11T03:33:28.063Z,97420.80
2018-05-11T03:35:58.671Z,97419.75
2018-05-11T03:38:28.243Z,97421.99
2018-05-11T03:40:58.049Z,97424.32
2018-05-11T03:43:28.317Z,97429.45
2018-05-11T03:45:58.352Z,97425.67
2018-05-11T03:48:28.939Z,97427.39
2018-05-11T03:50:58.512Z,97429.20
2018-05-11T03:53:28.069Z,97434.28
2018-05-11T03:55:57.624Z,97435.47
2018-05-11T03:58:27.835Z,97437.59
2018-05-11T04:00:58.598Z,97437.45
2018-05-11T04:03:46.075Z,97438.27
2018-05-11T04:06:33.689Z,97437.75
2018-05-11T04:09:04.207Z,97442.58
2018-05-11T04:11:33.847Z,97453.92
2018-05-11T04:14:03.581Z,97462.28
2018-05-11T04:16:33.767Z,97461.39
2018-05-11T04:19:03.424Z,97466.30
2018-05-11T04:21:32.937Z,97467.80
2018-05-11T04:24:02.450Z,97467.14
2018-05-11T04:26:31.991Z,97464.69
2018-05-11T04:29:08.960Z,97464.38
2018-05-11T04:31:39.429Z,97470.88
2018-05-11T04:34:08.975Z,97473.34
2018-05-11T04:36:39.475Z,97469.57
2018-05-11T04:39:09.319Z,97468.28
2018-05-11T04:41:38.810Z,97469.14
2018-05-11T04:44:08.450Z,97469.39
2018-05-11T04:46:38.122Z,97478.13
2018-05-11T04:49:07.841Z,97479.36
2018-05-11T04:51:38.997Z,97475.59
2018-05-11T04:54:08.600Z,97483.30
2018-05-11T04:56:38.282Z,97477.69
2018-05-11T04:59:07.876Z,97476.70
2018-05-11T05:01:38.288Z,97476.91
2018-05-11T05:04:07.885Z,97478.57
2018-05-11T05:06:37.475Z,97483.55
2018-05-11T05:09:07.143Z,97484.97
2018-05-11T05:11:37.061Z,97484.52
2018-05-11T05:14:06.605Z,97491.30
2018-05-11T05:16:37.197Z,97491.02
2018-05-11T05:19:06.812Z,97499.91
2018-05-11T05:21:36.303Z,97490.92
2018-05-11T05:24:06.813Z,97496.34
2018-05-11T05:26:36.657Z,97498.36
2018-05-11T05:29:23.960Z,97501.77
2018-05-11T05:31:57.783Z,97500.82
2018-05-11T05:34:27.348Z,97500.55
2018-05-11T05:36:58.567Z,97507.07
2018-05-11T05:39:28.186Z,97509.18
2018-05-11T05:42:00.385Z,97510.58
2018-05-11T05:44:30.014Z,97514.25
2018-05-11T05:46:59.940Z,97516.16
2018-05-11T05:49:30.318Z,97513.86
2018-05-11T05:52:01.958Z,97513.98
2018-05-11T05:54:31.545Z,97514.72
2018-05-11T05:57:02.098Z,97514.89
2018-05-11T05:59:32.444Z,97516.23
2018-05-11T06:02:02.786Z,97523.44
2018-05-11T06:04:35.497Z,97519.34
2018-05-11T06:07:05.223Z,97522.14
2018-05-11T06:09:34.744Z,97519.87
2018-05-11T06:12:05.180Z,97524.63
2018-05-11T06:14:36.644Z,97529.16
2018-05-11T06:17:06.222Z,97528.51
2018-05-11T06:19:36.727Z,97536.91
2018-05-11T06:22:06.589Z,97540.42
2018-05-11T06:24:36.520Z,97538.59
2018-05-11T06:27:06.296Z,97536.57
2018-05-11T06:29:36.668Z,97541.56
2018-05-11T06:32:06.518Z,97544.98
2018-05-11T06:34:37.149Z,97546.15
2018-05-11T06:37:06.664Z,97543.62
2018-05-11T06:39:37.451Z,97547.73
2018-05-11T06:42:07.086Z,97555.31
2018-05-11T06:44:36.719Z,97553.58
2018-05-11T06:47:06.239Z,97558.80
2018-05-11T06:49:35.905Z,97554.47
2018-05-11T06:52:05.503Z,97551.18
2018-05-11T06:54:35.012Z,97547.23
2018-05-11T06:57:04.530Z,97548.11
2018-05-11T06:59:34.134Z,97548.28
2018-05-11T07:02:03.863Z,97551.70
2018-05-11T07:04:34.079Z,97554.14
2018-05-11T07:07:03.603Z,97556.14
2018-05-11T07:09:33.248Z,97555.74
2018-05-11T07:12:04.552Z,97555.71
2018-05-11T07:14:34.175Z,97555.39
2018-05-11T07:17:04.135Z,97561.61
2018-05-11T07:19:34.095Z,97562.75
2018-05-11T07:22:03.773Z,97560.52
2018-05-11T07:24:34.566Z,97556.70
2018-05-11T07:27:04.344Z,97557.70
2018-05-11T07:29:33.842Z,97554.80
2018-05-11T07:32:03.404Z,97550.66
2018-05-11T07:34:33.076Z,97553.50
2018-05-11T07:37:02.669Z,97549.38
2018-05-11T07:39:33.511Z,97551.95
2018-05-11T07:42:03.499Z,97551.98
2018-05-11T07:44:33.007Z,97559.47
2018-05-11T07:47:02.579Z,97553.50
2018-05-11T07:49:32.243Z,97555.05
2018-05-11T07:52:01.854Z,97557.59
2018-05-11T07:54:31.572Z,97551.44
2018-05-11T07:57:01.140Z,97547.27
2018-05-11T07:59:30.836Z,97550.63
2018-05-11T08:02:00.466Z,97549.49
2018-05-11T08:04:30.210Z,97544.95
2018-05-11T08:06:59.894Z,97549.84
2018-05-11T08:09:29.415Z,97553.77
2018-05-11T08:11:59.138Z,97551.59
2018-05-11T08:14:28.875Z,97555.59
2018-05-11T08:16:58.574Z,97557.59
2018-05-11T08:19:29.581Z,97559.73
2018-05-11T08:22:02.847Z,97566.46
2018-05-11T08:24:32.446Z,97566.27
2018-05-11T08:27:02.972Z,97569.03
2018-05-11T08:29:33.439Z,97571.95
2018-05-11T08:32:02.969Z,97571.34
2018-05-11T08:34:32.883Z,97569.64
2018-05-11T08:37:03.634Z,97570.89
2018-05-11T08:39:33.223Z,97570.92
2018-05-11T08:42:02.965Z,97574.17
2018-05-11T08:44:33.345Z,97567.48
2018-05-11T08:47:14.526Z,97577.07
2018-05-11T08:49:44.323Z,97575.30
2018-05-11T08:52:14.076Z,97581.94
2018-05-11T08:54:44.089Z,97575.97
2018-05-11T08:57:14.683Z,97576.47
2018-05-11T08:59:44.201Z,97577.30
2018-05-11T09:02:14.556Z,97578.02
2018-05-11T09:04:44.344Z,97574.39
2018-05-11T09:07:15.339Z,97578.78
2018-05-11T09:09:45.607Z,97574.84
2018-05-11T09:12:15.985Z,97576.61
2018-05-11T09:14:46.590Z,97577.84
2018-05-11T09:17:16.359Z,97581.55
2018-05-11T09:19:47.754Z,97577.26
2018-05-11T09:22:17.248Z,97579.09
2018-05-11T09:24:48.132Z,97575.22
2018-05-11T09:27:18.901Z,97574.17
2018-05-11T09:29:48.414Z,97573.75
2018-05-11T09:32:18.536Z,97572.41
2018-05-11T09:34:48.265Z,97573.70
2018-05-11T09:37:18.074Z,97578.27
2018-05-11T09:39:47.911Z,97579.30
2018-05-11T09:42:18.408Z,97585.94
2018-05-11T09:44:49.850Z,97578.48
2018-05-11T09:47:20.565Z,97577.72
2018-05-11T09:49:52.248Z,97580.39
2018-05-11T09:52:21.975Z,97581.78
2018-05-11T09:55:01.599Z,97576.97
2018-05-11T09:57:31.843Z,97576.44
2018-05-11T10:00:01.733Z,97579.08
2018-05-11T10:02:31.283Z,97578.71
2018-05-11T10:05:00.782Z,97573.09
2018-05-11T10:07:30.296Z,97574.80
2018-05-11T10:09:59.771Z,97568.61
2018-05-11T10:12:29.505Z,97569.73
2018-05-11T10:14:59.852Z,97570.04
2018-05-11T10:17:29.732Z,97569.64
2018-05-11T10:20:00.701Z,97569.09
2018-05-11T10:22:30.488Z,97565.71
2018-05-11T10:25:00.300Z,97568.55
2018-05-11T10:27:30.513Z,97568.53
2018-05-11T10:30:04.036Z,97560.00
2018-05-11T10:32:34.355Z,97562.99
2018-05-11T10:35:04.151Z,97557.05
2018-05-11T10:37:33.790Z,97561.33
2018-05-11T10:40:03.556Z,97559.97
2018-05-11T10:42:33.286Z,97554.36
2018-05-11T10:45:03.991Z,97553.78
2018-05-11T10:47:33.517Z,97554.44
2018-05-11T10:50:03.236Z,97557.52
2018-05-11T10:52:33.707Z,97547.81
2018-05-11T10:55:05.028Z,97554.16
2018-05-11T10:57:35.131Z,97554.05
2018-05-11T11:00:04.960Z,97555.27
2018-05-11T11:02:35.274Z,97550.70
2018-05-11T11:05:04.805Z,97545.89
2018-05-11T11:07:34.387Z,97544.47
2018-05-11T11:10:05.309Z,97550.95
2018-05-11T11:12:35.197Z,97549.92
2018-05-11T11:15:04.954Z,97544.97
2018-05-11T11:17:34.574Z,97543.39
2018-05-11T11:20:04.260Z,97540.82
2018-05-11T11:22:35.175Z,97540.28
2018-05-11T11:25:04.721Z,97541.17
2018-05-11T11:27:34.235Z,97535.84
2018-05-11T11:30:04.853Z,97527.80
2018-05-11T11:32:34.379Z,97530.98
2018-05-11T11:35:06.192Z,97532.84
2018-05-11T11:37:36.002Z,97538.23
2018-05-11T11:40:05.736Z,97535.41
2018-05-11T11:42:35.435Z,97542.16
2018-05-11T11:45:05.040Z,97538.36
2018-05-11T11:47:34.892Z,97531.17
2018-05-11T11:50:04.721Z,97520.93
2018-05-11T11:52:34.500Z,97524.20
2018-05-11T11:55:04.272Z,97523.82
2018-05-11T11:57:34.559Z,97516.36
2018-05-11T12:00:04.242Z,97519.16
2018-05-11T12:02:34.092Z,97514.88
2018-05-11T12:05:03.724Z,97521.84
2018-05-11T12:07:33.703Z,97513.95
2018-05-11T12:10:04.422Z,97511.89
2018-05-11T12:12:34.953Z,97513.52
2018-05-11T12:15:09.796Z,97521.17
2018-05-11T12:17:44.131Z,97531.47
2018-05-11T12:20:16.560Z,97527.12
2018-05-11T12:22:46.146Z,97525.77
2018-05-11T12:25:17.951Z,97529.87
2018-05-11T12:27:50.229Z,97524.80
2018-05-11T12:30:20.141Z,97529.95
2018-05-11T12:32:50.713Z,97534.16
2018-05-11T12:35:20.322Z,97531.64
2018-05-11T12:37:51.113Z,97529.13
2018-05-11T12:40:20.924Z,97525.92
2018-05-11T12:42:51.142Z,97519.75
2018-05-11T12:45:20.698Z,97524.60
2018-05-11T12:47:50.623Z,97519.78
2018-05-11T12:50:21.193Z,97522.02
2018-05-11T12:52:51.224Z,97520.98
2018-05-11T12:55:21.030Z,97513.16
2018-05-11T12:57:52.439Z,97508.03
2018-05-11T13:00:23.078Z,97504.38
2018-05-11T13:02:53.649Z,97505.25
2018-05-11T13:05:23.542Z,97503.77
2018-05-11T13:07:54.096Z,97491.65
2018-05-11T13:10:23.906Z,97499.98
2018-05-11T13:12:53.443Z,97498.31
2018-05-11T13:15:23.131Z,97504.07
2018-05-11T13:17:54.034Z,97496.67
2018-05-11T13:20:23.992Z,97498.55
2018-05-11T13:22:53.737Z,97496.34
2018-05-11T13:25:23.488Z,97489.20
2018-05-11T13:27:53.020Z,97487.38
2018-05-11T13:30:22.581Z,97486.13
2018-05-11T13:32:52.585Z,97487.43
2018-05-11T13:35:23.383Z,97479.70
2018-05-11T13:37:53.898Z,97476.77
2018-05-11T13:40:25.137Z,97479.75
2018-05-11T13:42:54.909Z,97476.55
2018-05-11T13:45:24.867Z,97476.01
2018-05-11T13:47:54.630Z,97470.47
2018-05-11T13:50:24.814Z,97471.77
2018-05-11T13:52:54.352Z,97462.98
2018-05-11T13:55:24.124Z,97460.45
2018-05-11T13:57:54.994Z,97460.52
2018-05-11T14:00:24.893Z,97457.63
2018-05-11T14:02:54.695Z,97451.14
2018-05-11T14:05:24.407Z,97449.92
2018-05-11T14:08:06.188Z,97447.33
2018-05-11T14:10:35.909Z,97442.52
2018-05-11T14:13:05.777Z,97443.38
2018-05-11T14:15:37.548Z,97442.05
2018-05-11T14:18:07.396Z,97442.64
2018-05-11T14:20:37.736Z,97442.26
2018-05-11T14:23:07.283Z,97449.23
2018-05-11T14:25:37.039Z,97443.70
2018-05-11T14:28:06.725Z,97440.85
2018-05-11T14:30:36.875Z,97440.53
2018-05-11T14:33:06.542Z,97441.41
2018-05-11T14:35:36.137Z,97443.20
2018-05-11T14:38:05.975Z,97452.41
2018-05-11T14:40:35.571Z,97448.85
2018-05-11T14:43:06.845Z,97455.96
2018-05-11T14:45:38.047Z,97457.66
2018-05-11T14:48:08.332Z,97464.13
2018-05-11T14:50:38.013Z,97454.58
2018-05-11T14:53:08.161Z,97454.74
2018-05-11T14:55:38.590Z,97454.08
2018-05-11T14:58:08.265Z,97452.22
2018-05-11T15:00:37.899Z,97457.91
2018-05-11T15:03:07.465Z,97454.19
2018-05-11T15:05:37.010Z,97448.64
2018-05-11T15:08:06.730Z,97456.19
2018-05-11T15:10:36.963Z,97454.67
2018-05-11T15:13:06.628Z,97451.66
2018-05-11T15:15:36.873Z,97458.06
2018-05-11T15:18:08.101Z,97457.07
2018-05-11T15:20:37.625Z,97460.41
2018-05-11T15:23:07.355Z,97467.59
2018-05-11T15:25:37.058Z,97456.36
2018-05-11T15:28:06.736Z,97461.35
2018-05-11T15:30:36.357Z,97462.17
2018-05-11T15:33:05.970Z,97465.05
2018-05-11T15:35:35.901Z,97469.25
2018-05-11T15:38:05.801Z,97463.47
2018-05-11T15:40:36.266Z,97467.69
2018-05-11T15:43:06.087Z,97462.46
2018-05-11T15:45:35.646Z,97470.98
2018-05-11T15:48:12.868Z,97466.74
2018-05-11T15:50:43.758Z,97462.55
2018-05-11T15:53:13.357Z,97464.21
2018-05-11T15:55:44.274Z,97461.53
2018-05-11T15:58:13.968Z,97458.78
2018-05-11T16:00:43.759Z,97456.69
2018-05-11T16:03:13.468Z,97467.83
2018-05-11T16:05:43.074Z,97468.36
2018-05-11T16:08:12.893Z,97475.41
2018-05-11T16:10:42.508Z,97479.78
2018-05-11T16:13:12.025Z,97482.70
2018-05-11T16:15:42.197Z,97472.56
2018-05-11T16:18:12.579Z,97470.83
2018-05-11T16:20:42.281Z,97464.03
2018-05-11T16:23:13.826Z,97457.30
2018-05-11T16:25:44.250Z,97461.53
2018-05-11T16:28:13.848Z,97454.95
2018-05-11T16:30:43.543Z,97460.96
2018-05-11T16:33:13.433Z,97458.70
2018-05-11T16:35:43.793Z,97460.83
2018-05-11T16:38:13.304Z,97461.00
2018-05-11T16:40:42.874Z,97455.53
2018-05-11T16:43:12.509Z,97458.47
2018-05-11T16:45:42.361Z,97457.03
2018-05-11T16:48:11.952Z,97449.09
2018-05-11T16:50:41.765Z,97451.80
2018-05-11T16:53:22.506Z,97454.08
2018-05-11T16:55:52.539Z,97454.84
2018-05-11T16:58:22.329Z,97455.70
2018-05-11T17:00:52.682Z,97455.17
2018-05-11T17:03:23.038Z,97448.05
2018-05-11T17:05:53.312Z,97452.39
2018-05-11T17:08:23.298Z,97463.48
2018-05-11T17:10:55.015Z,97465.91
2018-05-11T17:13:24.591Z,97463.74
2018-05-11T17:15:54.113Z,97468.35
2018-05-11T17:18:23.730Z,97474.75
2018-05-11T17:20:55.393Z,97478.84
2018-05-11T17:23:26.621Z,97487.31
2018-05-11T17:25:57.238Z,97493.13
2018-05-11T17:28:26.992Z,97490.70
2018-05-11T17:30:56.648Z,97490.88
2018-05-11T17:33:26.196Z,97488.83
2018-05-11T17:35:56.043Z,97486.95
2018-05-11T17:38:27.736Z,97490.33
2018-05-11T17:40:58.897Z,97490.50
2018-05-11T17:43:30.809Z,97492.06
2018-05-11T17:46:00.894Z,97492.53
2018-05-11T17:48:30.979Z,97492.66
2018-05-11T17:51:03.108Z,97497.00
2018-05-11T17:53:34.004Z,97493.39
2018-05-11T17:56:04.533Z,97486.27
2018-05-11T17:58:36.338Z,97491.68
2018-05-11T18:01:07.063Z,97491.09
2018-05-11T18:03:36.709Z,97493.83
2018-05-11T18:06:07.154Z,97490.48
2018-05-11T18:08:36.721Z,97488.80
2018-05-11T18:11:07.607Z,97489.72
2018-05-11T18:13:37.710Z,97492.08
2018-05-11T18:16:08.964Z,97492.41
2018-05-11T18:18:39.071Z,97501.59
2018-05-11T18:21:10.360Z,97503.48
2018-05-11T18:23:41.704Z,97504.69
2018-05-11T18:26:12.478Z,97499.80
2018-05-11T18:28:43.306Z,97505.66
2018-05-11T18:31:20.418Z,97512.55
2018-05-11T18:33:51.480Z,97513.73
2018-05-11T18:36:21.409Z,97507.99
2018-05-11T18:38:51.354Z,97513.83
2018-05-11T18:41:21.196Z,97519.39
2018-05-11T18:43:51.460Z,97527.01
2018-05-11T18:46:21.422Z,97534.06
2018-05-11T18:48:51.627Z,97534.88
2018-05-11T18:51:27.813Z,97541.80
2018-05-11T18:54:20.728Z,97544.82
2018-05-11T18:57:12.863Z,97549.24
2018-05-11T19:00:06.873Z,97550.59
2018-05-11T19:02:40.987Z,97555.85
2018-05-11T19:05:11.800Z,97558.23
2018-05-11T19:07:41.351Z,97563.91
2018-05-11T19:10:11.668Z,97562.63
2018-05-11T19:13:08.331Z,97562.39
2018-05-11T19:15:39.853Z,97565.32
2018-05-11T19:18:09.982Z,97565.59
2018-05-11T19:20:39.883Z,97578.13
2018-05-11T19:23:18.342Z,97577.20
2018-05-11T19:25:49.910Z,97577.21
2018-05-11T19:28:19.957Z,97588.12
2018-05-11T19:30:49.746Z,97587.75
2018-05-11T19:33:19.559Z,97587.70
2018-05-11T19:35:49.653Z,97587.48
2018-05-11T19:38:19.348Z,97593.24
2018-05-11T19:40:50.743Z,97587.63
2018-05-11T19:43:22.439Z,97596.09
2018-05-11T19:45:52.438Z,97601.37
2018-05-11T19:48:25.903Z,97595.75
2018-05-11T19:50:55.865Z,97599.92
2018-05-11T19:53:26.571Z,97598.63
2018-05-11T19:55:56.412Z,97605.13
2018-05-11T19:58:26.067Z,97601.52
2018-05-11T20:00:55.729Z,97603.64
2018-05-11T20:03:26.919Z,97605.42
2018-05-11T20:05:56.501Z,97609.03
2018-05-11T20:08:26.724Z,97609.20
2018-05-11T20:10:57.221Z,97610.02
2018-05-11T20:13:26.746Z,97606.92
2018-05-11T20:15:56.421Z,97602.52
2018-05-11T20:18:28.793Z,97603.12
2018-05-11T20:21:04.949Z,97611.91
2018-05-11T20:23:34.856Z,97611.57
2018-05-11T20:26:05.067Z,97607.56
2018-05-11T20:28:35.209Z,97605.80
2018-05-11T20:31:08.069Z,97616.81
2018-05-11T20:33:38.559Z,97615.20
2018-05-11T20:36:08.699Z,97625.38
2018-05-11T20:38:52.233Z,97617.09
2018-05-11T20:41:22.408Z,97622.61
2018-05-11T20:43:53.084Z,97623.14
2018-05-11T20:46:22.845Z,97623.08
2018-05-11T20:48:55.200Z,97623.14
2018-05-11T20:51:25.242Z,97626.20
2018-05-11T20:53:55.223Z,97623.53
2018-05-11T20:56:26.366Z,97633.31
2018-05-11T20:58:56.748Z,97623.70
2018-05-11T21:01:27.649Z,97626.03
2018-05-11T21:03:57.220Z,97623.72
2018-05-11T21:06:28.386Z,97625.90
2018-05-11T21:08:58.266Z,97634.19
2018-05-11T21:22:14.674Z,97634.94
2018-05-11T21:24:45.113Z,97639.13
2018-05-11T21:27:15.955Z,97634.80
2018-05-11T21:29:45.655Z,97636.42
2018-05-11T21:32:16.197Z,97631.55
2018-05-11T21:34:46.054Z,97617.58
2018-05-11T21:37:15.826Z,97627.78
2018-05-11T21:39:45.363Z,97627.11
2018-05-11T21:42:17.904Z,97634.57
2018-05-11T21:44:47.637Z,97628.86
2018-05-11T21:47:17.516Z,97630.35
2018-05-11T21:49:47.056Z,97629.27
2018-05-11T21:52:18.813Z,97627.91
2018-05-11T21:54:50.080Z,97625.88
2018-05-11T21:57:24.480Z,97627.22
2018-05-11T21:59:56.473Z,97627.10
2018-05-11T22:02:26.387Z,97636.04
2018-05-11T22:04:55.918Z,97640.00
2018-05-11T22:07:25.750Z,97638.49
2018-05-11T22:10:04.143Z,97646.91
2018-05-11T22:12:34.772Z,97652.90
2018-05-11T22:15:04.634Z,97641.48
2018-05-11T22:17:34.734Z,97644.44
2018-05-11T22:20:05.579Z,97641.30
2018-05-11T22:22:36.054Z,97646.98
2018-05-11T22:25:06.576Z,97645.78
2018-05-11T22:27:36.166Z,97647.17
2018-05-11T22:30:06.096Z,97649.75
2018-05-11T22:32:35.678Z,97649.08
2018-05-11T22:35:05.379Z,97651.25
2018-05-11T22:37:38.068Z,97646.80
2018-05-11T22:40:10.446Z,97647.46
2018-05-11T22:42:41.010Z,97646.78
2018-05-11T22:45:10.544Z,97645.42
2018-05-11T22:47:40.119Z,97655.72
2018-05-11T22:50:09.931Z,97639.99
2018-05-11T22:52:40.365Z,97641.48
2018-05-11T22:55:10.545Z,97645.95
2018-05-11T22:57:40.186Z,97643.23
2018-05-11T23:00:11.128Z,97643.77
2018-05-11T23:02:41.921Z,97644.05
2018-05-11T23:05:11.681Z,97648.38
2018-05-11T23:07:42.572Z,97645.98
2018-05-11T23:10:15.342Z,97646.33
2018-05-11T23:12:46.442Z,97637.91
2018-05-11T23:15:17.984Z,97644.79
2018-05-11T23:17:48.277Z,97640.83
2018-05-11T23:20:19.445Z,97642.42
2018-05-11T23:22:50.424Z,97643.36
2018-05-11T23:25:20.234Z,97641.24
2018-05-11T23:27:50.120Z,97635.17
2018-05-11T23:30:19.679Z,97631.05
2018-05-11T23:32:50.788Z,97634.73
2018-05-11T23:35:20.510Z,97640.54
2018-05-11T23:37:50.964Z,97639.76
2018-05-11T23:40:21.470Z,97637.63
2018-05-11T23:42:51.292Z,97635.30
2018-05-11T23:45:21.206Z,97634.72
2018-05-11T23:47:52.540Z,97636.44
2018-05-11T23:50:22.246Z,97632.78
2018-05-11T23:52:53.091Z,97632.95
2018-05-11T23:55:22.683Z,97633.20
2018-05-11T23:57:52.890Z,97628.69
